Time;durP1;ratioP1;P1;durP2;ratioP2;P2;SDS_P1;SDS_P2;PMS_P1;PMS_P2;Temp;Humidity;BMP_temperature;BMP_pressure;BME280_temperature;BME280_humidity;BME280_pressure;Samples;Min_cycle;Max_cycle;Signal;HPM_P1;HPM_P2
2023/03/25 00:00:58;;;;;;;11.73;2.20;;;10.10;99.90;;;;;;5070734;28;20053;-77
2023/03/25 00:03:29;;;;;;;14.57;2.47;;;10.20;99.90;;;;;;5068317;28;20392;-77
2023/03/25 00:05:56;;;;;;;8.77;2.08;;;10.10;99.90;;;;;;5093775;28;20036;-77
2023/03/25 00:08:24;;;;;;;12.00;1.95;;;10.20;99.90;;;;;;5094061;28;20040;-77
2023/03/25 00:10:53;;;;;;;11.85;2.55;;;10.30;99.90;;;;;;5085345;28;20126;-77
2023/03/25 00:13:20;;;;;;;11.52;2.30;;;10.20;99.90;;;;;;5064054;28;20593;-77
2023/03/25 00:15:46;;;;;;;10.35;2.08;;;10.80;99.90;;;;;;5070751;28;20169;-77
2023/03/25 00:18:13;;;;;;;11.13;1.88;;;10.40;99.90;;;;;;5074502;28;20115;-77
2023/03/25 00:20:39;;;;;;;11.75;2.38;;;11.00;99.90;;;;;;5074993;28;20081;-77
2023/03/25 00:23:08;;;;;;;11.07;1.77;;;10.10;99.90;;;;;;5056466;28;20436;-77
2023/03/25 00:25:34;;;;;;;9.57;2.10;;;10.40;99.90;;;;;;5058336;28;20067;-77
2023/03/25 00:28:00;;;;;;;6.57;1.85;;;10.00;99.90;;;;;;5089658;28;20534;-77
2023/03/25 00:30:25;;;;;;;11.02;2.20;;;10.60;99.90;;;;;;5066231;28;20046;-77
2023/03/25 00:32:51;;;;;;;11.40;2.38;;;10.00;99.90;;;;;;5070820;28;20047;-77
2023/03/25 00:35:18;;;;;;;13.43;2.75;;;10.00;99.90;;;;;;5045191;28;20052;-77
2023/03/25 00:37:56;;;;;;;11.98;2.53;;;9.90;99.90;;;;;;5062138;28;20358;-77
2023/03/25 00:40:22;;;;;;;11.15;2.38;;;9.90;99.90;;;;;;5055330;28;20032;-77
2023/03/25 00:42:49;;;;;;;9.20;2.20;;;9.90;99.90;;;;;;5075195;28;20036;-76
2023/03/25 00:45:15;;;;;;;13.15;2.58;;;9.90;99.90;;;;;;5090785;28;20032;-76
2023/03/25 00:47:42;;;;;;;7.32;2.42;;;9.90;99.90;;;;;;5083102;28;20093;-76
2023/03/25 00:50:08;;;;;;;10.18;2.83;;;9.90;99.90;;;;;;5068785;28;20051;-76
2023/03/25 00:52:34;;;;;;;7.80;2.60;;;9.80;99.90;;;;;;5093318;22;20037;-64
2023/03/25 00:55:00;;;;;;;10.38;3.15;;;9.80;99.90;;;;;;5071663;28;20032;-62
2023/03/25 00:57:26;;;;;;;11.75;3.17;;;9.80;99.90;;;;;;5037601;28;20045;-63
2023/03/25 00:59:52;;;;;;;10.43;3.28;;;9.70;99.90;;;;;;5069823;28;20029;-61
2023/03/25 01:02:20;;;;;;;9.10;3.10;;;9.70;99.90;;;;;;5064027;28;20039;-63
2023/03/25 01:04:48;;;;;;;9.43;2.80;;;9.70;99.90;;;;;;5082243;28;20033;-63
2023/03/25 01:07:14;;;;;;;15.77;3.30;;;9.70;99.90;;;;;;5072384;28;20086;-63
2023/03/25 01:09:40;;;;;;;8.32;2.72;;;9.60;99.90;;;;;;5086486;28;20090;-62
2023/03/25 01:12:06;;;;;;;11.52;2.75;;;9.60;99.90;;;;;;5063134;28;20079;-61
2023/03/25 01:14:33;;;;;;;13.15;2.85;;;9.60;99.90;;;;;;5079519;28;20068;-61
2023/03/25 01:16:59;;;;;;;12.30;3.28;;;9.60;99.90;;;;;;5069344;28;20060;-61
2023/03/25 01:19:25;;;;;;;13.95;3.33;;;9.60;99.90;;;;;;5070722;28;20075;-65
2023/03/25 01:21:50;;;;;;;12.27;2.70;;;9.60;99.90;;;;;;5086548;28;20072;-62
2023/03/25 01:24:16;;;;;;;9.60;2.28;;;9.60;99.90;;;;;;5088578;28;20047;-62
2023/03/25 01:26:44;;;;;;;9.23;2.28;;;9.60;99.90;;;;;;5076387;28;20051;-63
2023/03/25 01:29:12;;;;;;;18.75;3.20;;;9.60;99.90;;;;;;5085859;28;20465;-63
2023/03/25 01:31:38;;;;;;;13.63;3.15;;;9.60;99.90;;;;;;5084305;28;20032;-63
2023/03/25 01:34:04;;;;;;;12.02;2.42;;;9.50;99.90;;;;;;5091121;28;20036;-63
2023/03/25 01:36:29;;;;;;;13.95;2.65;;;9.40;99.90;;;;;;5059209;28;20383;-63
2023/03/25 01:38:57;;;;;;;14.45;3.13;;;9.40;99.90;;;;;;5056575;28;20051;-62
2023/03/25 01:41:24;;;;;;;13.90;2.90;;;9.30;99.90;;;;;;5079343;28;20383;-62
2023/03/25 01:44:13;;;;;;;13.80;3.55;;;9.30;99.90;;;;;;5080881;28;20024;-63
2023/03/25 01:46:43;;;;;;;11.88;2.83;;;9.20;99.90;;;;;;5070240;28;20055;-63
2023/03/25 01:49:13;;;;;;;16.73;3.10;;;9.20;99.90;;;;;;5057629;28;20040;-63
2023/03/25 01:51:44;;;;;;;11.73;2.38;;;9.20;99.90;;;;;;5080833;28;20165;-63
2023/03/25 01:54:11;;;;;;;12.55;2.92;;;9.20;99.90;;;;;;5089661;28;20032;-63
2023/03/25 01:56:40;;;;;;;12.80;2.63;;;9.10;99.90;;;;;;5065891;28;20141;-62
2023/03/25 01:59:08;;;;;;;18.40;3.20;;;9.10;99.90;;;;;;5083868;28;20066;-63
2023/03/25 02:01:35;;;;;;;11.43;2.70;;;9.10;99.90;;;;;;5062216;28;20047;-63
2023/03/25 02:04:10;;;;;;;21.38;3.25;;;9.00;99.90;;;;;;5060433;28;20043;-63
2023/03/25 02:06:50;;;;;;;11.88;2.88;;;9.00;99.90;;;;;;5089616;28;20187;-63
2023/03/25 02:09:18;;;;;;;14.45;3.08;;;9.00;99.90;;;;;;5065825;28;20043;-62
2023/03/25 02:11:43;;;;;;;19.63;3.47;;;9.00;99.90;;;;;;5086823;28;20297;-62
2023/03/25 02:14:13;;;;;;;14.48;2.70;;;8.90;99.90;;;;;;5081004;28;20127;-63
2023/03/25 02:16:54;;;;;;;17.65;3.85;;;8.90;99.90;;;;;;5072902;28;20040;-62
2023/03/25 02:19:55;;;;;;;18.63;3.85;;;8.90;99.90;;;;;;5071183;28;20052;-63
2023/03/25 02:22:40;;;;;;;19.85;3.45;;;8.90;99.90;;;;;;5080953;28;20047;-62
2023/03/25 02:25:17;;;;;;;12.05;3.03;;;8.90;99.90;;;;;;5069863;28;20047;-62
2023/03/25 02:28:28;;;;;;;15.63;2.90;;;8.80;99.90;;;;;;5077264;28;20096;-63
2023/03/25 02:31:09;;;;;;;17.33;3.55;;;8.90;99.90;;;;;;5054213;28;20054;-65
2023/03/25 02:33:58;;;;;;;16.80;3.20;;;8.90;99.90;;;;;;5078470;28;20045;-63
2023/03/25 02:36:42;;;;;;;16.58;3.17;;;8.90;99.90;;;;;;5060251;28;20054;-63
2023/03/25 02:39:31;;;;;;;17.05;3.35;;;8.90;99.90;;;;;;5057880;28;20052;-63
2023/03/25 02:42:07;;;;;;;16.17;3.60;;;8.90;99.90;;;;;;5087857;28;20040;-63
2023/03/25 02:45:06;;;;;;;20.20;4.32;;;8.80;99.90;;;;;;5053577;28;20036;-63
2023/03/25 02:47:58;;;;;;;17.83;2.88;;;8.90;99.90;;;;;;5077825;28;20037;-63
2023/03/25 02:50:37;;;;;;;16.67;3.65;;;8.80;99.90;;;;;;5073579;28;20044;-63
2023/03/25 02:53:09;;;;;;;13.38;3.20;;;8.90;99.90;;;;;;5085250;28;20067;-63
2023/03/25 02:55:36;;;;;;;;;;;8.90;99.90;;;;;;5049622;28;20101;-63
2023/03/25 02:58:05;;;;;;;17.77;3.70;;;8.80;99.90;;;;;;5058139;28;19920;-63
2023/03/25 03:00:31;;;;;;;19.20;3.17;;;8.90;99.90;;;;;;5067313;28;20040;-63
2023/03/25 03:03:00;;;;;;;15.75;3.20;;;8.90;99.90;;;;;;5082002;28;20115;-63
2023/03/25 03:05:37;;;;;;;14.55;3.30;;;8.90;99.90;;;;;;5058213;28;20043;-63
2023/03/25 03:08:13;;;;;;;19.63;3.60;;;8.90;99.90;;;;;;5062088;28;20048;-63
2023/03/25 03:10:51;;;;;;;18.42;3.45;;;8.90;99.90;;;;;;5065753;28;20044;-63
2023/03/25 03:13:47;;;;;;;17.27;3.70;;;8.90;99.90;;;;;;5078571;28;20405;-63
2023/03/25 03:16:39;;;;;;;14.55;3.67;;;8.80;99.90;;;;;;5032052;28;20083;-63
2023/03/25 03:19:30;;;;;;;15.40;3.00;;;8.80;99.90;;;;;;5078824;28;20044;-63
2023/03/25 03:22:15;;;;;;;11.70;2.90;;;8.80;99.90;;;;;;5078114;28;20044;-63
2023/03/25 03:24:48;;;;;;;16.73;3.40;;;8.80;99.90;;;;;;5054424;28;20039;-63
2023/03/25 03:27:22;;;;;;;14.18;2.97;;;8.80;99.90;;;;;;5083277;28;20059;-63
2023/03/25 03:29:54;;;;;;;13.77;2.92;;;8.80;99.90;;;;;;5065950;28;20093;-63
2023/03/25 03:32:45;;;;;;;11.73;2.85;;;8.80;99.90;;;;;;5085942;28;20033;-63
2023/03/25 03:35:25;;;;;;;16.88;3.42;;;8.80;99.90;;;;;;5083425;28;20044;-63
2023/03/25 03:37:57;;;;;;;10.18;2.58;;;8.90;99.90;;;;;;5067963;28;20045;-63
2023/03/25 03:40:26;;;;;;;12.02;2.97;;;8.80;99.90;;;;;;5073877;28;20068;-63
2023/03/25 03:43:06;;;;;;;12.38;3.03;;;8.90;99.90;;;;;;5093525;28;20040;-63
2023/03/25 03:45:43;;;;;;;13.63;3.83;;;8.90;99.90;;;;;;5065333;28;20047;-63
2023/03/25 03:48:14;;;;;;;15.82;3.53;;;8.90;99.90;;;;;;5081170;28;20126;-63
2023/03/25 03:50:51;;;;;;;14.80;3.22;;;8.90;99.90;;;;;;5080519;28;20032;-63
2023/03/25 03:53:39;;;;;;;15.63;3.55;;;8.80;99.90;;;;;;5060242;28;20098;-63
2023/03/25 03:56:11;;;;;;;15.18;3.55;;;8.80;99.90;;;;;;5086153;28;20513;-63
2023/03/25 03:58:42;;;;;;;13.75;3.17;;;8.80;99.90;;;;;;5093361;28;20083;-63
2023/03/25 04:01:18;;;;;;;14.35;3.78;;;8.80;99.90;;;;;;5074303;28;20040;-63
2023/03/25 04:03:55;;;;;;;13.30;3.00;;;8.80;99.90;;;;;;5071789;28;20032;-63
2023/03/25 04:06:37;;;;;;;16.42;3.58;;;8.80;99.90;;;;;;5080406;28;20631;-63
2023/03/25 04:09:27;;;;;;;14.93;2.97;;;8.80;99.90;;;;;;5057458;28;20044;-63
2023/03/25 04:12:03;;;;;;;13.55;2.97;;;8.80;99.90;;;;;;5073572;28;20078;-63
2023/03/25 04:14:29;;;;;;;11.57;3.10;;;8.80;99.90;;;;;;5066488;28;20497;-63
2023/03/25 04:16:55;;;;;;;15.15;3.85;;;8.80;99.90;;;;;;5061962;28;20032;-63
2023/03/25 04:19:20;;;;;;;19.67;3.42;;;8.80;99.90;;;;;;5060190;28;20054;-63
2023/03/25 04:21:49;;;;;;;13.50;3.03;;;8.80;99.90;;;;;;5088969;28;20028;-63
2023/03/25 04:24:18;;;;;;;10.45;3.00;;;8.80;99.90;;;;;;5084268;28;20039;-63
2023/03/25 04:26:44;;;;;;;16.42;3.22;;;8.80;99.90;;;;;;5083927;28;20035;-63
2023/03/25 04:29:09;;;;;;;18.35;3.63;;;8.80;99.90;;;;;;5072286;28;20448;-63
2023/03/25 04:31:36;;;;;;;16.42;3.33;;;8.80;99.90;;;;;;5069607;28;20131;-63
2023/03/25 04:34:03;;;;;;;17.90;3.55;;;8.80;99.90;;;;;;5065404;28;20048;-63
2023/03/25 04:36:32;;;;;;;20.17;3.80;;;8.80;99.90;;;;;;5067094;28;20048;-63
2023/03/25 04:38:58;;;;;;;19.05;3.75;;;8.80;99.90;;;;;;5086364;28;20456;-63
2023/03/25 04:41:24;;;;;;;17.70;3.70;;;8.80;99.90;;;;;;5066475;28;20179;-63
2023/03/25 04:43:50;;;;;;;15.13;4.10;;;8.70;99.90;;;;;;5069501;28;20091;-63
2023/03/25 04:46:17;;;;;;;16.88;3.65;;;8.70;99.90;;;;;;5058210;28;20048;-63
2023/03/25 04:48:44;;;;;;;15.20;3.35;;;8.70;99.90;;;;;;5083530;28;20067;-63
2023/03/25 04:51:11;;;;;;;12.30;3.10;;;8.70;99.90;;;;;;5084761;28;20071;-63
2023/03/25 04:53:38;;;;;;;13.88;3.20;;;8.70;99.90;;;;;;5074201;28;20055;-63
2023/03/25 04:56:11;;;;;;;22.52;3.58;;;8.70;99.90;;;;;;5079782;28;20043;-63
2023/03/25 04:58:38;;;;;;;12.63;3.28;;;8.70;99.90;;;;;;5063151;28;20452;-63
2023/03/25 05:01:04;;;;;;;15.95;3.63;;;8.80;99.90;;;;;;5055573;28;20044;-63
2023/03/25 05:03:31;;;;;;;14.20;3.50;;;8.70;99.90;;;;;;5089619;28;20094;-63
2023/03/25 05:05:57;;;;;;;11.95;3.13;;;8.70;99.90;;;;;;5048563;28;20037;-63
2023/03/25 05:08:23;;;;;;;19.00;3.75;;;8.70;99.90;;;;;;5059507;28;20528;-63
2023/03/25 05:10:49;;;;;;;17.67;3.78;;;8.70;99.90;;;;;;5086020;28;20119;-63
2023/03/25 05:13:14;;;;;;;18.65;4.43;;;8.70;99.90;;;;;;5081378;28;20149;-63
2023/03/25 05:15:40;;;;;;;19.75;3.92;;;8.70;99.90;;;;;;5062859;28;20378;-63
2023/03/25 05:18:12;;;;;;;18.80;4.70;;;8.70;99.90;;;;;;5064283;28;20040;-63
2023/03/25 05:20:40;;;;;;;12.20;3.58;;;8.70;99.90;;;;;;5060166;28;20062;-63
2023/03/25 05:23:16;;;;;;;19.70;4.68;;;8.70;99.90;;;;;;5082600;28;20032;-63
2023/03/25 05:25:46;;;;;;;17.40;3.92;;;8.60;99.90;;;;;;5078816;28;20036;-63
2023/03/25 05:28:12;;;;;;;13.38;3.63;;;8.60;99.90;;;;;;5085383;28;20411;-63
2023/03/25 05:30:40;;;;;;;13.13;4.05;;;8.60;99.90;;;;;;5081261;28;20032;-63
2023/03/25 05:33:10;;;;;;;8.35;2.30;;;8.60;99.90;;;;;;5067582;28;20048;-63
2023/03/25 05:35:36;;;;;;;10.50;2.13;;;8.60;99.90;;;;;;5071291;28;20501;-63
2023/03/25 05:38:04;;;;;;;12.48;2.42;;;8.50;99.90;;;;;;5076813;28;20040;-63
2023/03/25 05:40:29;;;;;;;8.85;2.10;;;8.50;99.90;;;;;;5077827;28;20123;-63
2023/03/25 05:42:55;;;;;;;14.98;3.72;;;8.50;99.90;;;;;;5081853;28;20120;-63
2023/03/25 05:45:21;;;;;;;12.60;3.50;;;8.50;99.90;;;;;;5079217;28;20032;-63
2023/03/25 05:47:47;;;;;;;11.52;3.03;;;8.50;99.90;;;;;;5076260;28;20032;-63
2023/03/25 05:50:14;;;;;;;17.38;4.25;;;8.50;99.90;;;;;;5062715;28;20044;-63
2023/03/25 05:52:42;;;;;;;12.20;4.07;;;8.50;99.90;;;;;;5083565;28;20526;-63
2023/03/25 05:55:17;;;;;;;13.48;3.42;;;8.50;99.90;;;;;;5067183;28;20083;-63
2023/03/25 05:57:43;;;;;;;18.83;4.13;;;8.50;99.90;;;;;;5067123;28;20486;-63
2023/03/25 06:00:10;;;;;;;17.10;3.40;;;8.50;99.90;;;;;;5081888;28;20123;-63
2023/03/25 06:02:41;;;;;;;16.25;3.33;;;8.50;99.90;;;;;;5060953;28;20406;-63
2023/03/25 06:05:09;;;;;;;12.82;3.33;;;8.50;99.90;;;;;;5058278;28;20054;-63
2023/03/25 06:07:36;;;;;;;16.17;3.53;;;8.50;99.90;;;;;;5085558;28;20040;-63
2023/03/25 06:10:03;;;;;;;13.52;2.80;;;8.50;99.90;;;;;;5075115;28;20093;-63
2023/03/25 06:12:31;;;;;;;12.00;3.35;;;8.50;99.90;;;;;;5080669;28;20573;-63
2023/03/25 06:14:57;;;;;;;14.75;3.13;;;8.50;99.90;;;;;;5088068;28;20401;-63
2023/03/25 06:17:23;;;;;;;17.73;2.65;;;8.60;99.90;;;;;;5055602;28;20095;-63
2023/03/25 06:19:50;;;;;;;11.93;2.65;;;8.60;99.90;;;;;;5070356;28;20082;-63
2023/03/25 06:22:16;;;;;;;11.00;2.63;;;8.50;99.90;;;;;;5087773;28;20036;-63
2023/03/25 06:24:42;;;;;;;12.68;2.85;;;8.60;99.90;;;;;;5083721;28;20028;-63
2023/03/25 06:27:16;;;;;;;13.30;2.70;;;8.60;99.90;;;;;;5079778;28;20039;-63
2023/03/25 06:29:42;;;;;;;9.90;2.53;;;8.60;99.90;;;;;;5072660;28;20128;-63
2023/03/25 06:32:10;;;;;;;11.65;2.25;;;8.50;99.90;;;;;;5088990;28;20072;-63
2023/03/25 06:34:37;;;;;;;13.13;2.60;;;8.50;99.90;;;;;;5088086;28;20089;-63
2023/03/25 06:37:04;;;;;;;14.90;2.90;;;8.50;99.90;;;;;;5080250;28;20082;-63
2023/03/25 06:39:33;;;;;;;14.73;3.08;;;8.50;99.90;;;;;;5073695;28;20037;-63
2023/03/25 06:41:59;;;;;;;23.80;3.05;;;8.50;99.90;;;;;;5054333;28;20040;-63
2023/03/25 06:44:25;;;;;;;21.15;3.65;;;8.50;99.90;;;;;;5073835;28;20359;-63
2023/03/25 06:46:52;;;;;;;19.05;3.35;;;8.50;99.90;;;;;;5073826;28;20638;-63
2023/03/25 06:49:18;;;;;;;16.23;3.55;;;8.60;99.90;;;;;;5059825;28;20059;-63
2023/03/25 06:54:19;;;;;;;18.20;3.75;;;8.70;99.90;;;;;;5096173;28;20134;-61
2023/03/25 06:56:45;;;;;;;23.00;4.07;;;8.70;99.90;;;;;;5089604;28;20118;-62
2023/03/25 06:59:10;;;;;;;18.48;4.55;;;8.80;99.90;;;;;;5088216;28;20040;-61
2023/03/25 07:01:36;;;;;;;18.17;3.83;;;8.80;99.90;;;;;;5084728;28;20089;-65
2023/03/25 07:04:01;;;;;;;22.15;4.32;;;8.90;99.90;;;;;;5089032;28;20043;-64
2023/03/25 07:06:27;;;;;;;21.83;4.10;;;9.00;99.90;;;;;;5085833;28;20031;-63
2023/03/25 07:08:52;;;;;;;16.17;3.65;;;9.00;99.90;;;;;;5089282;28;20475;-63
2023/03/25 07:11:26;;;;;;;21.38;3.55;;;9.10;99.90;;;;;;5071229;28;20079;-64
2023/03/25 07:13:52;;;;;;;20.67;4.22;;;9.20;99.90;;;;;;5082890;28;20040;-63
2023/03/25 07:16:19;;;;;;;22.42;3.65;;;9.10;99.90;;;;;;5080663;28;20062;-63
2023/03/25 07:18:45;;;;;;;21.30;3.65;;;9.10;99.90;;;;;;5086106;28;20120;-63
2023/03/25 07:21:11;;;;;;;22.60;4.15;;;9.20;99.90;;;;;;5067463;28;20116;-64
2023/03/25 07:23:36;;;;;;;24.55;4.07;;;9.10;99.90;;;;;;5084217;28;20070;-65
2023/03/25 07:26:02;;;;;;;20.05;3.95;;;9.10;99.90;;;;;;5083440;28;20041;-65
2023/03/25 07:28:28;;;;;;;22.02;4.72;;;9.10;99.90;;;;;;5089224;28;20123;-64
2023/03/25 07:30:53;;;;;;;23.38;4.30;;;9.10;99.90;;;;;;5085677;28;20572;-63
2023/03/25 07:33:19;;;;;;;29.45;4.75;;;9.10;99.90;;;;;;5088392;28;20036;-64
2023/03/25 07:35:44;;;;;;;23.58;4.32;;;9.10;99.90;;;;;;5073639;28;20039;-64
2023/03/25 07:38:10;;;;;;;17.83;3.70;;;9.10;99.90;;;;;;5089182;28;20470;-63
2023/03/25 07:40:36;;;;;;;21.48;3.78;;;9.00;99.90;;;;;;5088744;28;20887;-63
2023/03/25 07:43:02;;;;;;;20.42;4.40;;;9.00;99.90;;;;;;5089201;28;20066;-64
2023/03/25 07:45:27;;;;;;;19.20;3.13;;;9.00;99.90;;;;;;5063242;28;20119;-64
2023/03/25 07:47:53;;;;;;;14.10;3.25;;;8.90;99.90;;;;;;5085473;28;20037;-65
2023/03/25 07:50:20;;;;;;;20.40;3.30;;;8.90;99.90;;;;;;5081897;28;20070;-64
2023/03/25 07:52:46;;;;;;;24.23;4.05;;;8.90;99.90;;;;;;5088212;28;20162;-64
2023/03/25 07:55:13;;;;;;;20.02;4.15;;;8.90;99.90;;;;;;5076695;28;20043;-65
2023/03/25 07:57:40;;;;;;;23.20;3.67;;;8.90;99.90;;;;;;5089291;28;20044;-64
2023/03/25 08:00:07;;;;;;;24.98;3.63;;;8.90;99.90;;;;;;5057692;28;20114;-65
2023/03/25 08:02:32;;;;;;;16.88;2.90;;;9.00;99.90;;;;;;5049983;28;20516;-64
2023/03/25 08:04:58;;;;;;;23.00;3.97;;;9.00;99.90;;;;;;5072472;28;20036;-66
2023/03/25 08:07:24;;;;;;;22.65;3.85;;;9.00;99.90;;;;;;5079956;28;20032;-64
2023/03/25 08:09:50;;;;;;;16.95;3.25;;;9.10;99.90;;;;;;5066831;28;20462;-64
2023/03/25 08:12:15;;;;;;;20.60;3.70;;;9.10;99.90;;;;;;5077136;28;20118;-64
2023/03/25 08:14:41;;;;;;;23.13;3.63;;;9.10;99.90;;;;;;5089591;28;20085;-63
2023/03/25 08:17:07;;;;;;;15.18;3.30;;;9.10;99.90;;;;;;5073155;28;20035;-64
2023/03/25 08:19:32;;;;;;;15.82;3.10;;;9.10;99.90;;;;;;5089376;28;20537;-65
2023/03/25 08:21:58;;;;;;;18.33;3.60;;;9.10;99.90;;;;;;5089689;28;20055;-64
2023/03/25 08:24:25;;;;;;;20.02;3.70;;;9.00;99.90;;;;;;5090103;28;20184;-63
2023/03/25 08:26:55;;;;;;;16.70;3.35;;;9.10;99.90;;;;;;5091755;28;20044;-64
2023/03/25 08:29:21;;;;;;;17.83;3.35;;;9.10;99.90;;;;;;5086591;28;20039;-65
2023/03/25 08:31:50;;;;;;;20.88;4.20;;;9.00;99.90;;;;;;5092954;28;20040;-66
2023/03/25 08:34:17;;;;;;;27.77;4.15;;;9.00;99.90;;;;;;5087430;28;20032;-64
2023/03/25 08:36:43;;;;;;;17.90;2.80;;;9.10;99.90;;;;;;5089430;28;20035;-64
2023/03/25 08:39:10;;;;;;;19.02;2.95;;;9.00;99.90;;;;;;5089940;28;20093;-66
2023/03/25 08:41:37;;;;;;;23.70;4.00;;;9.00;99.90;;;;;;5088143;28;20036;-63
2023/03/25 08:44:06;;;;;;;22.80;3.65;;;9.00;99.90;;;;;;5073367;28;20047;-65
2023/03/25 08:46:32;;;;;;;23.42;4.50;;;9.00;99.90;;;;;;5079437;28;20492;-64
2023/03/25 08:49:00;;;;;;;21.13;3.72;;;9.00;99.90;;;;;;5056315;28;20051;-64
2023/03/25 08:51:25;;;;;;;24.85;4.32;;;9.10;99.90;;;;;;5066970;28;20405;-64
2023/03/25 08:53:51;;;;;;;23.63;3.78;;;9.10;99.90;;;;;;5083144;28;20033;-64
2023/03/25 08:56:19;;;;;;;32.13;4.72;;;9.10;99.90;;;;;;5091110;28;20122;-65
2023/03/25 08:58:44;;;;;;;27.10;3.85;;;9.20;99.90;;;;;;5075753;28;20068;-64
2023/03/25 09:01:10;;;;;;;25.65;4.43;;;9.30;99.90;;;;;;5069327;28;20059;-64
2023/03/25 09:03:37;;;;;;;24.20;4.00;;;9.30;99.90;;;;;;5079379;28;20144;-64
2023/03/25 09:06:07;;;;;;;17.75;3.42;;;9.40;99.90;;;;;;5090545;28;20044;-63
2023/03/25 09:08:35;;;;;;;23.02;3.85;;;9.40;99.90;;;;;;5072098;28;20036;-63
2023/03/25 09:11:01;;;;;;;24.02;3.65;;;9.50;99.90;;;;;;5091927;28;20121;-63
2023/03/25 09:13:27;;;;;;;20.58;3.65;;;9.60;99.90;;;;;;5091978;28;20409;-64
2023/03/25 09:15:53;;;;;;;24.25;4.50;;;9.60;99.90;;;;;;5069532;28;20040;-64
2023/03/25 09:18:18;;;;;;;22.80;4.10;;;9.70;99.90;;;;;;5083967;28;20044;-64
2023/03/25 09:20:47;;;;;;;24.50;3.50;;;9.70;99.90;;;;;;5084925;28;20082;-65
2023/03/25 09:23:14;;;;;;;16.92;3.35;;;9.60;99.90;;;;;;5080124;28;20040;-64
2023/03/25 09:25:39;;;;;;;16.48;3.70;;;9.60;99.90;;;;;;5088557;28;20397;-63
2023/03/25 09:28:05;;;;;;;15.30;2.97;;;9.60;99.90;;;;;;5073497;28;20048;-64
2023/03/25 09:30:31;;;;;;;15.65;3.17;;;9.60;99.90;;;;;;5091749;28;20443;-63
2023/03/25 09:32:56;;;;;;;17.83;3.10;;;9.60;99.90;;;;;;5069052;28;20067;-63
2023/03/25 09:35:22;;;;;;;14.98;2.70;;;9.60;99.90;;;;;;5053816;28;20064;-64
2023/03/25 09:37:48;;;;;;;19.10;3.28;;;9.60;99.90;;;;;;5089111;28;20040;-63
2023/03/25 09:40:16;;;;;;;20.27;3.33;;;9.60;99.90;;;;;;5060708;28;20043;-64
2023/03/25 09:43:17;;;;;;;19.27;3.28;;;9.60;99.90;;;;;;5077453;28;20039;-63
2023/03/25 09:45:46;;;;;;;20.30;3.97;;;9.70;99.90;;;;;;5086270;28;20054;-64
2023/03/25 09:48:37;;;;;;;20.13;3.60;;;9.70;99.90;;;;;;5089425;28;20040;-63
2023/03/25 09:51:13;;;;;;;16.52;3.42;;;9.70;99.90;;;;;;5071540;28;20109;-63
2023/03/25 09:54:16;;;;;;;20.50;3.20;;;9.70;99.90;;;;;;5074180;28;20051;-65
2023/03/25 09:56:43;;;;;;;18.00;2.92;;;9.70;99.90;;;;;;5089938;28;20036;-63
2023/03/25 09:59:14;;;;;;;14.35;2.95;;;9.70;99.90;;;;;;5087061;28;20108;-65
2023/03/25 10:01:50;;;;;;;17.75;3.45;;;9.60;99.90;;;;;;5075442;28;20047;-63
2023/03/25 10:04:41;;;;;;;17.23;2.83;;;9.70;99.90;;;;;;5082824;28;20052;-62
2023/03/25 10:07:30;;;;;;;17.42;3.40;;;9.60;99.90;;;;;;5088933;28;20050;-63
2023/03/25 10:10:17;;;;;;;17.05;3.30;;;9.60;99.90;;;;;;5076406;28;20112;-64
2023/03/25 10:12:49;;;;;;;17.95;3.30;;;9.60;99.90;;;;;;5082674;28;20039;-64
2023/03/25 10:15:20;;;;;;;16.33;3.22;;;9.60;99.90;;;;;;5086420;28;20402;-64
2023/03/25 10:18:07;;;;;;;13.00;2.50;;;9.60;99.90;;;;;;5073113;28;20558;-63
2023/03/25 10:21:12;;;;;;;17.92;2.97;;;9.60;99.90;;;;;;5090316;28;20277;-63
2023/03/25 10:23:58;;;;;;;18.42;2.97;;;9.60;99.90;;;;;;5059021;28;20502;-64
2023/03/25 10:26:35;;;;;;;11.85;2.90;;;9.60;99.90;;;;;;5082921;28;20036;-63
2023/03/25 10:29:07;;;;;;;18.52;2.75;;;9.80;99.90;;;;;;5080851;28;20040;-62
2023/03/25 10:31:41;;;;;;;18.40;2.80;;;9.80;99.90;;;;;;5081045;28;20060;-63
2023/03/25 10:34:16;;;;;;;16.10;2.58;;;9.90;99.90;;;;;;5086982;28;20044;-63
2023/03/25 10:36:56;;;;;;;14.52;2.65;;;10.00;99.90;;;;;;5085476;28;20517;-62
2023/03/25 10:39:23;;;;;;;15.27;3.60;;;10.10;99.90;;;;;;5084676;28;20054;-64
2023/03/25 10:41:59;;;;;;;16.52;2.70;;;10.10;99.90;;;;;;5079365;28;20074;-63
2023/03/25 10:44:27;;;;;;;16.77;2.67;;;10.10;99.90;;;;;;5087025;28;20043;-64
2023/03/25 10:47:07;;;;;;;13.13;2.90;;;10.20;99.90;;;;;;5061685;28;20474;-63
2023/03/25 10:49:34;;;;;;;16.08;2.90;;;10.20;99.90;;;;;;5078903;28;20044;-65
2023/03/25 10:52:01;;;;;;;12.20;2.28;;;10.30;99.90;;;;;;5079834;28;20048;-63
2023/03/25 10:54:49;;;;;;;15.82;2.75;;;10.30;99.90;;;;;;5077493;28;20040;-65
2023/03/25 10:57:26;;;;;;;13.18;2.63;;;10.30;99.90;;;;;;5086520;28;20126;-65
2023/03/25 10:59:57;;;;;;;19.10;2.95;;;10.40;99.90;;;;;;5085144;28;20043;-63
2023/03/25 11:02:25;;;;;;;12.70;2.67;;;10.40;99.90;;;;;;5071254;28;20463;-64
2023/03/25 11:04:58;;;;;;;15.65;2.97;;;10.40;99.90;;;;;;5066689;28;20382;-63
2023/03/25 11:07:38;;;;;;;18.52;2.80;;;10.50;99.90;;;;;;5080728;28;20715;-63
2023/03/25 11:10:13;;;;;;;14.55;2.20;;;10.60;99.90;;;;;;5065798;28;20039;-65
2023/03/25 11:12:44;;;;;;;20.15;2.55;;;10.70;99.90;;;;;;5058348;28;20040;-63
2023/03/25 11:15:35;;;;;;;14.15;3.33;;;10.70;99.90;;;;;;5086971;28;20185;-63
2023/03/25 11:18:03;;;;;;;16.75;3.22;;;10.70;99.90;;;;;;5072845;28;20048;-64
2023/03/25 11:20:34;;;;;;;18.65;3.13;;;10.70;99.90;;;;;;5072488;28;20115;-64
2023/03/25 11:23:11;;;;;;;20.67;3.03;;;10.80;99.90;;;;;;5065530;28;20070;-63
2023/03/25 11:25:40;;;;;;;14.95;3.05;;;10.90;99.90;;;;;;5068888;28;20054;-63
2023/03/25 11:28:15;;;;;;;15.15;2.92;;;11.00;99.90;;;;;;5086865;28;20036;-63
2023/03/25 11:31:08;;;;;;;13.93;2.78;;;11.10;99.90;;;;;;5088461;28;20409;-63
2023/03/25 11:33:35;;;;;;;17.77;2.28;;;11.30;99.90;;;;;;5083551;28;20042;-63
2023/03/25 11:36:20;;;;;;;13.30;2.25;;;11.40;99.90;;;;;;5075401;28;20487;-62
2023/03/25 11:38:52;;;;;;;16.25;2.72;;;11.40;99.90;;;;;;5086097;28;20043;-63
2023/03/25 11:41:18;;;;;;;16.08;2.70;;;11.40;99.90;;;;;;5082566;28;20116;-63
2023/03/25 11:43:47;;;;;;;12.38;2.45;;;11.40;99.90;;;;;;5078808;28;20032;-63
2023/03/25 11:46:19;;;;;;;12.05;2.78;;;11.30;99.90;;;;;;5061072;28;20039;-63
2023/03/25 11:48:46;;;;;;;13.85;2.70;;;11.30;99.90;;;;;;5079959;28;20048;-63
2023/03/25 11:51:30;;;;;;;13.25;2.40;;;11.20;99.90;;;;;;5081938;28;20479;-62
2023/03/25 11:54:04;;;;;;;17.60;3.67;;;11.20;99.90;;;;;;5061086;28;20052;-62
2023/03/25 11:56:41;;;;;;;17.27;2.50;;;11.40;99.90;;;;;;5067805;28;20044;-64
2023/03/25 11:59:23;;;;;;;16.20;2.60;;;11.60;99.90;;;;;;5091349;28;20037;-64
2023/03/25 12:01:50;;;;;;;12.73;2.90;;;11.80;99.90;;;;;;5075899;28;20043;-65
2023/03/25 12:04:19;;;;;;;17.15;2.80;;;11.80;99.90;;;;;;5091512;28;20078;-63
2023/03/25 12:07:09;;;;;;;11.18;3.10;;;11.70;99.90;;;;;;5092013;28;20040;-64
2023/03/25 12:09:35;;;;;;;17.73;2.95;;;11.60;99.90;;;;;;5076377;28;20040;-64
2023/03/25 12:12:25;;;;;;;13.68;2.95;;;11.50;99.90;;;;;;5081746;28;20082;-65
2023/03/25 12:15:05;;;;;;;14.98;2.75;;;11.50;99.90;;;;;;5091583;28;20036;-66
2023/03/25 12:17:48;;;;;;;18.65;3.00;;;11.50;99.90;;;;;;5089223;28;20036;-66
2023/03/25 12:21:03;;;;;;;18.33;2.97;;;11.50;99.90;;;;;;5093951;28;20110;-64
2023/03/25 12:23:46;;;;;;;17.17;2.92;;;11.50;99.90;;;;;;5010687;28;20037;-63
2023/03/25 12:26:26;;;;;;;17.05;2.63;;;11.50;99.90;;;;;;4990652;28;20092;-64
2023/03/25 12:29:28;;;;;;;14.65;2.72;;;11.50;99.90;;;;;;5071754;28;20044;-64
2023/03/25 12:31:54;;;;;;;19.15;2.67;;;11.60;99.90;;;;;;5090047;28;20056;-64
2023/03/25 12:34:42;;;;;;;15.02;2.80;;;11.50;99.90;;;;;;5069670;28;20079;-64
2023/03/25 12:37:23;;;;;;;14.32;2.80;;;11.60;99.90;;;;;;5069935;28;20108;-64
2023/03/25 12:40:21;;;;;;;14.55;3.38;;;11.40;99.90;;;;;;5076935;28;20105;-64
2023/03/25 12:43:20;;;;;;;12.15;2.83;;;11.40;99.90;;;;;;5050408;28;20051;-63
2023/03/25 12:46:06;;;;;;;16.85;2.92;;;11.50;99.90;;;;;;5086907;28;20394;-64
2023/03/25 12:48:50;;;;;;;14.85;2.85;;;11.60;99.90;;;;;;5072488;28;20054;-64
2023/03/25 12:51:28;;;;;;;17.52;3.10;;;11.70;99.90;;;;;;5073350;28;20052;-63
2023/03/25 12:54:12;;;;;;;20.75;3.20;;;11.90;99.90;;;;;;5073711;28;20502;-65
2023/03/25 12:57:22;;;;;;;16.05;2.70;;;12.00;99.90;;;;;;5063014;28;20533;-63
2023/03/25 13:00:06;;;;;;;11.50;2.30;;;12.00;99.90;;;;;;5083061;28;20154;-64
2023/03/25 13:03:06;;;;;;;11.85;2.67;;;11.90;99.90;;;;;;5065227;28;20069;-65
2023/03/25 13:05:56;;;;;;;16.95;3.20;;;11.90;99.90;;;;;;5089602;28;20040;-63
2023/03/25 13:08:40;;;;;;;14.55;3.08;;;11.80;99.90;;;;;;5088981;28;20089;-65
2023/03/25 13:11:13;;;;;;;14.57;2.78;;;11.70;99.90;;;;;;5077595;28;20058;-63
2023/03/25 13:13:39;;;;;;;14.68;3.17;;;11.80;99.90;;;;;;5091559;28;20068;-64